Time;durP1;ratioP1;P1;durP2;ratioP2;P2;SDS_P1;SDS_P2;PMS_P1;PMS_P2;Temp;Humidity;BMP_temperature;BMP_pressure;BME280_temperature;BME280_humidity;BME280_pressure;Samples;Min_cycle;Max_cycle;Signal;HPM_P1;HPM_P2
2022/04/26 03:43:52;;;;;;;;;34.00;21.00;;;;;;;;2;261075276;261075276;-79
2022/04/26 03:52:53;;;;;;;;;30.00;23.50;;;;;;;;2;261076576;261076576;-79
2022/04/26 04:01:09;;;;;;;;;31.50;26.00;;;;;;;;2;261075944;261075944;-79
2022/04/26 04:10:09;;;;;;;;;37.00;25.00;;;;;;;;2;261075328;261075328;-79
2022/04/26 04:27:45;;;;;;;;;26.50;22.50;;;;;;;;2;261075675;261075675;-79
2022/04/26 04:36:01;;;;;;;;;21.00;21.00;;;;;;;;2;261078744;261078744;-79
2022/04/26 04:45:02;;;;;;;;;29.50;29.00;;;;;;;;2;261075980;261075980;-79
2022/04/26 04:53:18;;;;;;;;;29.00;21.50;;;;;;;;2;261074625;261074625;-80
2022/04/26 05:02:19;;;;;;;;;28.00;25.00;;;;;;;;2;261079338;261079338;-79
2022/04/26 05:10:36;;;;;;;;;33.00;24.00;;;;;;;;2;261076471;261076471;-79
2022/04/26 05:19:36;;;;;;;;;34.50;22.50;;;;;;;;2;261075547;261075547;-79
2022/04/26 05:27:52;;;;;;;;;20.00;20.00;;;;;;;;2;261075766;261075766;-79
2022/04/26 05:36:52;;;;;;;;;37.50;22.00;;;;;;;;2;261076233;261076233;-79
2022/04/26 05:45:08;;;;;;;;;37.50;34.50;;;;;;;;2;261077142;261077142;-79
2022/04/26 05:54:08;;;;;;;;;53.50;34.50;;;;;;;;2;261075057;261075057;-79
2022/04/26 06:02:23;;;;;;;;;50.00;33.00;;;;;;;;2;261076972;261076972;-79
2022/04/26 06:11:24;;;;;;;;;40.50;36.50;;;;;;;;2;261075150;261075150;-79
2022/04/26 06:19:39;;;;;;;;;41.50;29.00;;;;;;;;2;261075987;261075987;-79
2022/04/26 06:28:40;;;;;;;;;49.50;34.50;;;;;;;;2;261075636;261075636;-80
2022/04/26 06:36:55;;;;;;;;;42.00;33.50;;;;;;;;2;261076264;261076264;-80
2022/04/26 06:45:56;;;;;;;;;46.50;35.50;;;;;;;;2;261077315;261077315;-79
2022/04/26 06:54:11;;;;;;;;;48.00;32.00;;;;;;;;2;261074974;261074974;-80
2022/04/26 07:03:12;;;;;;;;;52.50;39.00;;;;;;;;2;261076328;261076328;-80
2022/04/26 07:11:27;;;;;;;;;54.50;43.00;;;;;;;;2;261074802;261074802;-80
2022/04/26 07:20:30;;;;;;;;;39.00;28.50;;;;;;;;2;261077021;261077021;-80
2022/04/26 07:28:45;;;;;;;;;66.50;43.00;;;;;;;;2;261072889;261072889;-80
2022/04/26 07:37:45;;;;;;;;;57.50;34.50;;;;;;;;2;261074835;261074835;-80
2022/04/26 07:46:01;;;;;;;;;40.00;31.00;;;;;;;;2;261074747;261074747;-79
2022/04/26 07:55:01;;;;;;;;;31.00;30.50;;;;;;;;2;261077012;261077012;-80
2022/04/26 08:03:20;;;;;;;;;53.00;35.00;;;;;;;;2;261073636;261073636;-80
2022/04/26 08:12:20;;;;;;;;;40.50;36.50;;;;;;;;2;261075197;261075197;-80
2022/04/26 08:20:37;;;;;;;;;46.00;37.50;;;;;;;;2;261076288;261076288;-80
2022/04/26 08:29:38;;;;;;;;;51.00;40.00;;;;;;;;2;261075336;261075336;-81
2022/04/26 08:37:53;;;;;;;;;42.50;32.00;;;;;;;;2;261075511;261075511;-81
2022/04/26 08:55:29;;;;;;;;;51.50;38.00;;;;;;;;2;261075617;261075617;-79
2022/04/26 09:04:30;;;;;;;;;39.50;35.50;;;;;;;;2;261074390;261074390;-82
2022/04/26 09:13:04;;;;;;;;;48.00;35.00;;;;;;;;2;261073334;261073334;-82
2022/04/26 09:22:14;;;;;;;;;54.50;39.50;;;;;;;;2;261074670;261074670;-82
2022/04/26 09:30:30;;;;;;;;;44.00;37.00;;;;;;;;2;261075166;261075166;-82
2022/04/26 09:39:30;;;;;;;;;53.00;34.00;;;;;;;;2;261077204;261077204;-80
2022/04/26 09:47:46;;;;;;;;;47.00;33.50;;;;;;;;2;261078186;261078186;-81
2022/04/26 09:56:47;;;;;;;;;46.00;39.00;;;;;;;;2;261074040;261074040;-81
2022/04/26 10:05:03;;;;;;;;;37.50;29.50;;;;;;;;2;261078802;261078802;-81
2022/04/26 10:14:05;;;;;;;;;44.00;33.50;;;;;;;;2;261073383;261073383;-81
2022/04/26 10:22:43;;;;;;;;;46.50;40.00;;;;;;;;2;261077959;261077959;-81
2022/04/26 10:31:44;;;;;;;;;47.00;38.50;;;;;;;;2;261075951;261075951;-81
2022/04/26 10:40:01;;;;;;;;;45.50;37.50;;;;;;;;2;261073724;261073724;-82
2022/04/26 10:49:24;;;;;;;;;45.00;33.00;;;;;;;;2;261075245;261075245;-82
2022/04/26 10:57:41;;;;;;;;;48.50;30.00;;;;;;;;2;261077528;261077528;-82
2022/04/26 11:06:42;;;;;;;;;60.50;41.00;;;;;;;;2;261077421;261077421;-82
2022/04/26 11:14:59;;;;;;;;;51.50;35.00;;;;;;;;2;261075026;261075026;-82
2022/04/26 11:32:50;;;;;;;;;51.00;38.00;;;;;;;;2;261079076;261079076;-82
2022/04/26 11:41:57;;;;;;;;;44.50;31.00;;;;;;;;2;261074042;261074042;-82
2022/04/26 11:50:15;;;;;;;;;31.50;30.00;;;;;;;;2;261077573;261077573;-82
2022/04/26 11:59:16;;;;;;;;;44.00;33.50;;;;;;;;2;261074375;261074375;-82
2022/04/26 12:07:31;;;;;;;;;34.50;32.50;;;;;;;;2;261077010;261077010;-82
2022/04/26 12:16:35;;;;;;;;;37.00;34.00;;;;;;;;2;261074046;261074046;-82
2022/04/26 12:24:53;;;;;;;;;35.50;33.00;;;;;;;;2;261072697;261072697;-81
2022/04/26 12:34:12;;;;;;;;;26.00;22.00;;;;;;;;2;261076174;261076174;-82
2022/04/26 12:42:27;;;;;;;;;40.00;27.50;;;;;;;;2;261075345;261075345;-82
2022/04/26 12:51:29;;;;;;;;;33.00;29.00;;;;;;;;2;261076799;261076799;-82
2022/04/26 12:59:44;;;;;;;;;42.00;31.50;;;;;;;;2;261076517;261076517;-82
2022/04/26 13:08:46;;;;;;;;;18.50;18.50;;;;;;;;2;261075481;261075481;-82
2022/04/26 13:17:01;;;;;;;;;25.00;16.50;;;;;;;;2;261077021;261077021;-82
2022/04/26 13:26:02;;;;;;;;;19.50;19.50;;;;;;;;2;261074965;261074965;-82
2022/04/26 13:34:18;;;;;;;;;20.00;20.00;;;;;;;;2;261075509;261075509;-82
2022/04/26 13:43:21;;;;;;;;;31.00;27.00;;;;;;;;2;261076309;261076309;-82
2022/04/26 13:51:38;;;;;;;;;24.00;24.00;;;;;;;;2;260979199;260979199;-82
2022/04/26 14:00:39;;;;;;;;;22.50;22.50;;;;;;;;2;261075599;261075599;-82
2022/04/26 14:08:54;;;;;;;;;21.50;17.50;;;;;;;;2;261073978;261073978;-82
2022/04/26 14:26:29;;;;;;;;;18.50;18.50;;;;;;;;2;261077349;261077349;-81
2022/04/26 14:35:31;;;;;;;;;20.00;20.00;;;;;;;;2;261078278;261078278;-80
2022/04/26 14:43:47;;;;;;;;;24.00;18.50;;;;;;;;2;261073798;261073798;-80
2022/04/26 14:52:47;;;;;;;;;14.00;14.00;;;;;;;;2;261075687;261075687;-81
2022/04/26 15:01:03;;;;;;;;;15.00;15.00;;;;;;;;2;261072245;261072245;-81
2022/04/26 15:10:03;;;;;;;;;10.50;10.50;;;;;;;;2;261076515;261076515;-81
2022/04/26 15:18:20;;;;;;;;;10.50;10.50;;;;;;;;2;261075383;261075383;-81
2022/04/26 15:27:20;;;;;;;;;9.50;9.50;;;;;;;;2;261073644;261073644;-81
2022/04/26 15:35:36;;;;;;;;;11.00;11.00;;;;;;;;2;261076674;261076674;-80
2022/04/26 15:44:37;;;;;;;;;23.50;6.00;;;;;;;;2;261075899;261075899;-81
2022/04/26 15:52:53;;;;;;;;;14.50;14.50;;;;;;;;2;261075884;261075884;-81
2022/04/26 16:01:53;;;;;;;;;11.50;11.50;;;;;;;;2;261080480;261080480;-81
2022/04/26 16:28:03;;;;;;;;;15.50;15.50;;;;;;;;2;261074222;261074222;-81
2022/04/26 16:37:04;;;;;;;;;20.50;12.00;;;;;;;;2;261073574;261073574;-81
2022/04/26 16:45:19;;;;;;;;;11.00;11.00;;;;;;;;2;261076383;261076383;-82
2022/04/26 16:54:20;;;;;;;;;12.50;12.50;;;;;;;;2;261078101;261078101;-81
2022/04/26 17:02:35;;;;;;;;;9.50;9.50;;;;;;;;2;261077191;261077191;-81
2022/04/26 17:11:42;;;;;;;;;14.00;14.00;;;;;;;;2;261075232;261075232;-81
2022/04/26 17:19:59;;;;;;;;;13.00;13.00;;;;;;;;2;261077169;261077169;-81
2022/04/26 17:28:59;;;;;;;;;13.50;13.50;;;;;;;;2;261074159;261074159;-81
2022/04/26 17:37:15;;;;;;;;;18.00;18.00;;;;;;;;2;261076688;261076688;-81
2022/04/26 17:46:15;;;;;;;;;13.50;13.50;;;;;;;;2;261073143;261073143;-81
2022/04/26 18:03:50;;;;;;;;;16.00;14.50;;;;;;;;2;261077170;261077170;-80
2022/04/26 18:12:05;;;;;;;;;15.50;10.50;;;;;;;;2;261073524;261073524;-81
2022/04/26 18:21:06;;;;;;;;;22.00;10.50;;;;;;;;2;261075304;261075304;-81
2022/04/26 18:30:45;;;;;;;;;12.00;9.50;;;;;;;;215510;22;261075659;-81
2022/04/26 18:39:01;;;;;;;;;22.50;14.00;;;;;;;;2;261077798;261077798;-80
2022/04/26 18:48:02;;;;;;;;;13.50;13.50;;;;;;;;2;261075819;261075819;-81
2022/04/26 18:56:17;;;;;;;;;20.50;18.00;;;;;;;;2;261074810;261074810;-80
2022/04/26 19:05:23;;;;;;;;;15.00;15.00;;;;;;;;2;261072682;261072682;-81
2022/04/26 19:13:39;;;;;;;;;11.50;11.50;;;;;;;;2;261076928;261076928;-81
2022/04/26 19:22:39;;;;;;;;;31.00;30.50;;;;;;;;2;261077927;261077927;-81
2022/04/26 19:30:55;;;;;;;;;34.00;32.50;;;;;;;;2;261074593;261074593;-81
2022/04/26 19:39:56;;;;;;;;;29.50;17.50;;;;;;;;2;261075973;261075973;-80
2022/04/26 19:48:14;;;;;;;;;20.50;20.50;;;;;;;;2;261074972;261074972;-80
2022/04/26 19:57:17;;;;;;;;;16.00;16.00;;;;;;;;2;261075005;261075005;-80
2022/04/26 20:05:33;;;;;;;;;20.00;20.00;;;;;;;;2;261074424;261074424;-81
2022/04/26 20:14:34;;;;;;;;;18.00;18.00;;;;;;;;2;261075543;261075543;-80
2022/04/26 20:22:49;;;;;;;;;11.50;11.50;;;;;;;;2;261076317;261076317;-80
2022/04/26 20:31:50;;;;;;;;;15.00;15.00;;;;;;;;2;261074138;261074138;-80
2022/04/26 20:40:06;;;;;;;;;42.00;14.50;;;;;;;;2;261076845;261076845;-80
2022/04/26 20:49:06;;;;;;;;;21.00;12.00;;;;;;;;2;261076956;261076956;-80
2022/04/26 20:57:22;;;;;;;;;19.00;19.00;;;;;;;;2;261075827;261075827;-80
2022/04/26 21:06:22;;;;;;;;;32.00;16.50;;;;;;;;2;261076520;261076520;-80
2022/04/26 21:14:38;;;;;;;;;26.00;17.00;;;;;;;;2;261075041;261075041;-80
2022/04/26 21:23:39;;;;;;;;;15.50;15.50;;;;;;;;2;261077600;261077600;-80
2022/04/26 21:31:55;;;;;;;;;19.00;19.00;;;;;;;;2;261073720;261073720;-80
2022/04/26 21:40:55;;;;;;;;;16.50;12.50;;;;;;;;2;261074408;261074408;-80
2022/04/26 21:49:11;;;;;;;;;17.00;17.00;;;;;;;;2;261073245;261073245;-80
2022/04/26 21:58:11;;;;;;;;;6.00;6.00;;;;;;;;2;261076335;261076335;-80
2022/04/26 22:06:28;;;;;;;;;26.50;14.50;;;;;;;;2;261079252;261079252;-80
2022/04/26 22:15:29;;;;;;;;;20.00;8.00;;;;;;;;2;261074533;261074533;-80
2022/04/26 22:23:44;;;;;;;;;3.00;3.00;;;;;;;;2;261075387;261075387;-80
2022/04/26 22:32:45;;;;;;;;;6.00;6.00;;;;;;;;2;261074011;261074011;-80
2022/04/26 22:41:00;;;;;;;;;10.50;7.00;;;;;;;;2;261075551;261075551;-80
2022/04/26 22:50:01;;;;;;;;;8.50;8.50;;;;;;;;2;261073975;261073975;-80
2022/04/26 22:58:17;;;;;;;;;8.00;8.00;;;;;;;;2;261072815;261072815;-80
2022/04/26 23:07:17;;;;;;;;;9.00;9.00;;;;;;;;2;261075366;261075366;-80
2022/04/26 23:15:33;;;;;;;;;7.50;7.50;;;;;;;;2;261077570;261077570;-80
2022/04/26 23:24:33;;;;;;;;;9.00;9.00;;;;;;;;2;261075503;261075503;-80
2022/04/26 23:32:49;;;;;;;;;18.00;9.50;;;;;;;;2;261075797;261075797;-80
2022/04/26 23:41:50;;;;;;;;;7.00;7.00;;;;;;;;2;261074382;261074382;-80
2022/04/26 23:52:53;;;;;;;;;11.00;11.00;;;;;;;;2;261072708;261072708;-79
2022/04/26 23:59:26;;;;;;;;;11.00;11.00;;;;;;;;2;261073420;261073420;-80
